Time;durP1;ratioP1;P1;durP2;ratioP2;P2;SDS_P1;SDS_P2;PMS_P1;PMS_P2;Temp;Humidity;BMP_temperature;BMP_pressure;BME280_temperature;BME280_humidity;BME280_pressure;Samples;Min_cycle;Max_cycle;Signal;HPM_P1;HPM_P2
2021/06/20 00:01:33;;;;;;;19.33;12.97;;;22.20;99.40;;;;;;5043908;28;20262;-55
2021/06/20 00:04:00;;;;;;;17.00;12.73;;;22.20;99.50;;;;;;5049150;28;20221;-64
2021/06/20 00:06:52;;;;;;;21.50;13.00;;;22.20;99.60;;;;;;5048627;28;20428;-59
2021/06/20 00:09:19;;;;;;;21.60;13.20;;;22.20;99.70;;;;;;5041485;28;20820;-61
2021/06/20 00:11:47;;;;;;;18.50;12.20;;;22.10;99.60;;;;;;5046880;28;20495;-61
2021/06/20 00:14:13;;;;;;;19.63;12.90;;;22.10;99.70;;;;;;5048321;28;20472;-54
2021/06/20 00:16:39;;;;;;;19.70;12.60;;;22.10;99.70;;;;;;5037900;28;20529;-58
2021/06/20 00:19:06;;;;;;;18.27;12.80;;;22.00;99.80;;;;;;5041356;28;21096;-58
2021/06/20 00:21:33;;;;;;;16.33;13.40;;;22.00;99.90;;;;;;5044319;28;20191;-57
2021/06/20 00:23:58;;;;;;;16.37;12.40;;;21.90;99.90;;;;;;5049519;28;20457;-58
2021/06/20 00:26:25;;;;;;;22.03;12.40;;;21.90;99.90;;;;;;5046874;28;20433;-59
2021/06/20 00:28:50;;;;;;;14.30;12.57;;;21.90;99.90;;;;;;5043622;28;20179;-57
2021/06/20 00:31:16;;;;;;;20.07;12.30;;;21.90;99.90;;;;;;5037911;28;20996;-59
2021/06/20 00:33:42;;;;;;;25.90;12.23;;;21.80;99.90;;;;;;5039848;28;20238;-58
2021/06/20 00:36:09;;;;;;;15.60;12.27;;;21.80;99.90;;;;;;5042527;28;20210;-57
2021/06/20 00:38:35;;;;;;;20.30;13.23;;;21.80;99.90;;;;;;5049396;28;20417;-55
2021/06/20 00:41:02;;;;;;;19.77;12.63;;;21.80;99.90;;;;;;5045806;28;20426;-56
2021/06/20 00:43:28;;;;;;;24.10;11.70;;;21.70;99.90;;;;;;5044332;28;20195;-58
2021/06/20 00:45:54;;;;;;;18.23;12.43;;;21.70;99.90;;;;;;5049877;28;20467;-57
2021/06/20 00:48:20;;;;;;;22.50;13.90;;;21.70;99.90;;;;;;5049519;28;20260;-57
2021/06/20 00:50:45;;;;;;;16.53;11.27;;;21.70;99.90;;;;;;5043440;28;20418;-57
2021/06/20 00:53:11;;;;;;;13.80;12.00;;;21.70;99.90;;;;;;5046500;28;20445;-57
2021/06/20 00:55:38;;;;;;;24.80;12.60;;;21.70;99.90;;;;;;5041307;28;20186;-56
2021/06/20 00:58:06;;;;;;;19.43;12.63;;;21.70;99.90;;;;;;5041795;28;20525;-60
2021/06/20 01:00:33;;;;;;;15.83;12.47;;;21.70;99.90;;;;;;5045701;28;20454;-59
2021/06/20 01:03:00;;;;;;;21.87;12.10;;;21.70;99.90;;;;;;5045322;28;20564;-59
2021/06/20 01:05:28;;;;;;;19.93;12.40;;;21.60;99.90;;;;;;5043914;28;20820;-59
2021/06/20 01:07:55;;;;;;;15.53;12.37;;;21.60;99.90;;;;;;5049239;28;20632;-56
2021/06/20 01:10:22;;;;;;;17.70;12.63;;;21.60;99.90;;;;;;5048730;28;20412;-59
2021/06/20 01:12:49;;;;;;;18.50;12.60;;;21.60;99.90;;;;;;5048024;28;20515;-57
2021/06/20 01:15:16;;;;;;;20.00;12.87;;;21.50;99.90;;;;;;5047482;28;20430;-58
2021/06/20 01:17:43;;;;;;;18.53;11.40;;;21.50;99.90;;;;;;5049593;28;20459;-56
2021/06/20 01:20:12;;;;;;;16.20;11.87;;;21.50;99.90;;;;;;5049656;28;20414;-53
2021/06/20 01:22:43;;;;;;;17.63;12.70;;;21.50;99.90;;;;;;5047394;28;21063;-56
2021/06/20 01:25:12;;;;;;;21.93;12.13;;;21.40;99.90;;;;;;5044688;28;20491;-56
2021/06/20 01:28:06;;;;;;;20.93;12.60;;;21.40;99.90;;;;;;5048775;28;20430;-58
2021/06/20 01:30:35;;;;;;;19.13;12.30;;;21.40;99.90;;;;;;5043739;28;20441;-53
2021/06/20 01:33:04;;;;;;;14.77;12.77;;;21.40;99.90;;;;;;5047584;28;20481;-57
2021/06/20 01:35:30;;;;;;;18.33;12.57;;;21.40;99.90;;;;;;5054552;28;20525;-57
2021/06/20 01:37:56;;;;;;;20.70;13.50;;;21.40;99.90;;;;;;5055070;28;21085;-56
2021/06/20 01:40:23;;;;;;;18.73;13.03;;;21.40;99.90;;;;;;5046827;28;20285;-64
2021/06/20 01:42:50;;;;;;;15.53;12.07;;;21.40;99.90;;;;;;5057422;28;20474;-54
2021/06/20 01:45:17;;;;;;;20.20;12.97;;;21.50;99.90;;;;;;5049701;28;20410;-54
2021/06/20 01:47:43;;;;;;;20.07;12.23;;;21.50;99.90;;;;;;5044625;28;20455;-56
2021/06/20 01:50:13;;;;;;;19.93;12.23;;;21.50;99.90;;;;;;5047484;28;21005;-56
2021/06/20 01:52:40;;;;;;;17.83;11.80;;;21.50;99.90;;;;;;5033460;28;20652;-56
2021/06/20 01:55:07;;;;;;;21.67;12.90;;;21.60;99.90;;;;;;5031257;28;20813;-56
2021/06/20 01:57:36;;;;;;;29.10;13.17;;;21.60;99.90;;;;;;5048002;28;20841;-54
2021/06/20 02:00:16;;;;;;;15.40;12.73;;;21.60;99.90;;;;;;5048616;28;20416;-55
2021/06/20 02:02:42;;;;;;;22.10;12.27;;;21.50;99.90;;;;;;5034576;28;20492;-56
2021/06/20 02:05:09;;;;;;;22.00;12.70;;;21.40;99.90;;;;;;5048093;28;20425;-54
2021/06/20 02:07:37;;;;;;;18.10;12.87;;;21.30;99.90;;;;;;5047596;28;20786;-56
2021/06/20 02:10:06;;;;;;;20.23;12.27;;;21.30;99.90;;;;;;5032894;28;20430;-56
2021/06/20 02:12:32;;;;;;;18.67;13.00;;;21.30;99.90;;;;;;5027916;28;20421;-57
2021/06/20 02:14:57;;;;;;;21.17;13.00;;;21.30;99.90;;;;;;5041917;28;20431;-53
2021/06/20 02:17:23;;;;;;;17.10;12.47;;;21.30;99.90;;;;;;5045088;28;20171;-60
2021/06/20 02:19:51;;;;;;;18.27;12.20;;;21.30;99.90;;;;;;5047878;28;20579;-57
2021/06/20 02:22:17;;;;;;;22.10;13.03;;;21.30;99.90;;;;;;5044811;28;20206;-54
2021/06/20 02:24:42;;;;;;;22.33;13.43;;;21.30;99.90;;;;;;5046022;28;20505;-56
2021/06/20 02:27:10;;;;;;;21.70;13.57;;;21.40;99.90;;;;;;5042231;28;20199;-57
2021/06/20 02:29:37;;;;;;;21.67;12.97;;;21.40;99.90;;;;;;5047655;28;20164;-58
2021/06/20 02:32:04;;;;;;;27.03;12.97;;;21.40;99.90;;;;;;5045657;28;20485;-56
2021/06/20 02:34:29;;;;;;;21.50;12.70;;;21.40;99.90;;;;;;5044983;28;20432;-56
2021/06/20 02:36:55;;;;;;;37.10;10.23;;;21.50;99.90;;;;;;5048122;28;20417;-54
2021/06/20 02:39:20;;;;;;;31.73;8.00;;;21.50;99.90;;;;;;5048040;28;20171;-57
2021/06/20 02:41:50;;;;;;;25.27;7.70;;;21.60;95.80;;;;;;5041179;28;20171;-55
2021/06/20 02:44:18;;;;;;;34.10;8.80;;;21.70;94.40;;;;;;5039667;28;20195;-57
2021/06/20 02:46:44;;;;;;;37.50;8.07;;;21.80;93.50;;;;;;5047238;28;21052;-53
2021/06/20 02:49:10;;;;;;;26.47;7.57;;;21.90;91.30;;;;;;5045527;28;20509;-55
2021/06/20 02:51:36;;;;;;;31.27;7.17;;;22.00;89.60;;;;;;5027514;28;20171;-56
2021/06/20 02:54:02;;;;;;;27.93;7.40;;;22.10;88.40;;;;;;5040615;28;20934;-57
2021/06/20 02:56:27;;;;;;;39.83;6.83;;;22.20;86.90;;;;;;5048427;28;20171;-56
2021/06/20 02:58:53;;;;;;;28.77;7.30;;;22.30;84.60;;;;;;5044422;28;20445;-57
2021/06/20 03:01:19;;;;;;;31.07;6.20;;;22.30;83.70;;;;;;5030661;28;20187;-58
2021/06/20 03:03:44;;;;;;;20.00;5.20;;;22.30;80.10;;;;;;5040271;28;20635;-58
2021/06/20 03:06:11;;;;;;;22.77;5.77;;;22.40;77.30;;;;;;5052462;28;20258;-56
2021/06/20 03:08:36;;;;;;;20.83;5.10;;;22.40;76.60;;;;;;5044163;28;20168;-57
2021/06/20 03:11:03;;;;;;;26.10;4.63;;;22.40;74.40;;;;;;5038304;28;20418;-55
2021/06/20 03:13:29;;;;;;;20.83;5.90;;;22.40;74.10;;;;;;5049919;28;20683;-61
2021/06/20 03:15:55;;;;;;;29.93;5.10;;;22.40;74.10;;;;;;5049286;28;20487;-57
2021/06/20 03:18:21;;;;;;;22.30;5.17;;;22.40;73.70;;;;;;5040383;28;20183;-57
2021/06/20 03:20:46;;;;;;;16.03;5.23;;;22.40;70.90;;;;;;5033274;28;20433;-55
2021/06/20 03:23:12;;;;;;;22.80;5.30;;;22.50;70.40;;;;;;5049574;28;20278;-58
2021/06/20 03:25:39;;;;;;;21.60;4.40;;;22.50;70.90;;;;;;5045836;28;20719;-56
2021/06/20 03:28:08;;;;;;;21.67;4.40;;;22.40;70.30;;;;;;5051383;28;20624;-57
2021/06/20 03:30:34;;;;;;;21.00;4.53;;;22.40;70.50;;;;;;5050321;28;20762;-55
2021/06/20 03:33:00;;;;;;;14.70;3.70;;;22.40;71.60;;;;;;5046715;28;21076;-56
2021/06/20 03:35:26;;;;;;;17.60;4.20;;;22.30;71.30;;;;;;5043000;28;20538;-56
2021/06/20 03:37:52;;;;;;;19.37;4.60;;;22.30;71.30;;;;;;5050503;28;20847;-55
2021/06/20 03:40:18;;;;;;;24.77;4.60;;;22.20;70.60;;;;;;5050827;28;20417;-56
2021/06/20 03:42:44;;;;;;;12.40;4.20;;;22.20;70.20;;;;;;5049366;28;20339;-56
2021/06/20 03:45:10;;;;;;;19.63;4.17;;;22.10;70.30;;;;;;5037377;28;20200;-55
2021/06/20 03:47:37;;;;;;;19.47;4.30;;;22.10;69.10;;;;;;5049501;28;20167;-55
2021/06/20 03:50:04;;;;;;;11.20;3.23;;;22.00;68.30;;;;;;5049543;28;20405;-56
2021/06/20 03:52:30;;;;;;;15.67;4.20;;;22.00;67.70;;;;;;5049231;28;20421;-55
2021/06/20 03:54:56;;;;;;;12.83;3.40;;;22.00;66.70;;;;;;5051355;28;20488;-56
2021/06/20 03:57:22;;;;;;;13.83;2.97;;;21.90;65.90;;;;;;5048366;28;20164;-56
2021/06/20 03:59:48;;;;;;;12.60;2.80;;;22.00;65.70;;;;;;5040150;28;20168;-55
2021/06/20 04:02:14;;;;;;;7.60;2.90;;;21.90;65.70;;;;;;5039907;28;20526;-57
2021/06/20 04:04:41;;;;;;;13.60;3.27;;;21.90;66.00;;;;;;5050584;28;20418;-57
2021/06/20 04:07:08;;;;;;;17.67;3.67;;;21.90;64.40;;;;;;5036062;28;20479;-52
2021/06/20 04:09:34;;;;;;;10.67;2.60;;;21.90;64.20;;;;;;5044389;28;20956;-56
2021/06/20 04:12:00;;;;;;;8.20;2.70;;;21.90;63.70;;;;;;5046355;28;20515;-55
2021/06/20 04:14:25;;;;;;;12.27;2.70;;;21.90;64.20;;;;;;5050258;28;20175;-55
2021/06/20 04:16:51;;;;;;;11.03;2.63;;;21.90;65.20;;;;;;5050503;28;20175;-54
2021/06/20 04:19:16;;;;;;;15.50;2.87;;;21.90;65.40;;;;;;5048027;28;20186;-54
2021/06/20 04:21:42;;;;;;;11.67;2.90;;;21.90;64.10;;;;;;5030105;28;20180;-54
2021/06/20 04:24:08;;;;;;;12.63;2.77;;;21.90;65.20;;;;;;5049097;28;20871;-56
2021/06/20 04:26:35;;;;;;;9.03;2.60;;;21.90;64.80;;;;;;5050558;28;20577;-54
2021/06/20 04:29:00;;;;;;;10.57;3.00;;;21.90;64.20;;;;;;5043361;28;20441;-55
2021/06/20 04:31:26;;;;;;;10.10;3.00;;;21.90;65.00;;;;;;5030014;28;20394;-56
2021/06/20 04:33:52;;;;;;;10.10;2.33;;;21.90;65.20;;;;;;5047951;28;20221;-55
2021/06/20 04:36:18;;;;;;;11.73;3.10;;;21.90;65.20;;;;;;5046359;28;20172;-56
2021/06/20 04:38:44;;;;;;;7.93;3.00;;;21.90;64.80;;;;;;5056735;22;20230;-60
2021/06/20 04:41:14;;;;;;;9.10;2.80;;;21.90;66.20;;;;;;5028824;28;20175;-60
2021/06/20 04:46:36;;;;;;;13.73;3.00;;;21.90;67.90;;;;;;5023890;28;20939;-61
2021/06/20 04:49:07;;;;;;;9.93;2.30;;;21.90;68.30;;;;;;5032347;28;20965;-60
2021/06/20 04:51:38;;;;;;;12.07;2.50;;;21.90;69.70;;;;;;5048652;28;20486;-59
2021/06/20 04:54:04;;;;;;;11.37;2.87;;;21.90;68.00;;;;;;5042532;28;20430;-59
2021/06/20 04:56:30;;;;;;;10.80;2.90;;;21.90;70.50;;;;;;5040237;28;20588;-61
2021/06/20 04:58:56;;;;;;;13.07;3.10;;;21.90;69.50;;;;;;5049494;28;20274;-59
2021/06/20 05:01:21;;;;;;;16.10;3.00;;;21.90;69.70;;;;;;5042437;28;20655;-60
2021/06/20 05:03:48;;;;;;;5.57;1.97;;;21.90;71.60;;;;;;5042581;28;20642;-59
2021/06/20 05:06:14;;;;;;;11.47;2.40;;;21.90;71.00;;;;;;5033325;28;20176;-60
2021/06/20 05:08:40;;;;;;;8.00;2.10;;;21.90;70.40;;;;;;5043830;28;20453;-58
2021/06/20 05:11:05;;;;;;;8.33;2.53;;;21.90;68.50;;;;;;5034349;28;20188;-58
2021/06/20 05:13:32;;;;;;;4.40;1.97;;;22.00;68.80;;;;;;5040153;28;21218;-59
2021/06/20 05:15:57;;;;;;;11.43;2.10;;;22.00;68.40;;;;;;5040537;28;20179;-61
2021/06/20 05:18:23;;;;;;;6.23;1.90;;;22.00;67.90;;;;;;5038259;28;20536;-58
2021/06/20 05:20:49;;;;;;;11.33;2.17;;;22.00;68.60;;;;;;5043592;28;20531;-59
2021/06/20 05:23:15;;;;;;;5.97;2.00;;;22.10;67.00;;;;;;5042282;28;20786;-59
2021/06/20 05:25:40;;;;;;;7.10;2.20;;;22.10;69.30;;;;;;5041781;28;20778;-57
2021/06/20 05:28:06;;;;;;;8.90;2.30;;;22.10;66.70;;;;;;5045378;28;20636;-61
2021/06/20 05:30:32;;;;;;;11.60;2.33;;;22.10;64.60;;;;;;5042093;28;20235;-58
2021/06/20 05:32:57;;;;;;;6.67;2.50;;;22.10;65.80;;;;;;5045173;28;20175;-58
2021/06/20 05:35:23;;;;;;;3.90;1.70;;;22.10;63.70;;;;;;5032532;28;20179;-59
2021/06/20 05:37:49;;;;;;;7.67;1.87;;;22.10;63.10;;;;;;5045862;28;20175;-59
2021/06/20 05:40:15;;;;;;;3.50;2.00;;;22.10;63.80;;;;;;5048814;28;20167;-59
2021/06/20 05:42:41;;;;;;;8.20;1.87;;;22.10;64.00;;;;;;5046170;28;20199;-59
2021/06/20 05:45:07;;;;;;;6.90;2.57;;;22.10;67.10;;;;;;5044435;28;20499;-58
2021/06/20 05:47:33;;;;;;;4.07;2.23;;;22.10;69.30;;;;;;5035599;28;20182;-58
2021/06/20 05:49:59;;;;;;;7.53;1.90;;;22.10;65.60;;;;;;5034729;28;20553;-58
2021/06/20 05:52:25;;;;;;;6.63;2.13;;;22.10;64.60;;;;;;5027397;28;21350;-56
2021/06/20 05:54:51;;;;;;;5.97;2.43;;;22.20;63.10;;;;;;5032986;28;20245;-59
2021/06/20 05:57:21;;;;;;;5.10;1.67;;;22.20;62.40;;;;;;5043223;28;20418;-58
2021/06/20 05:59:48;;;;;;;6.70;1.93;;;22.30;61.40;;;;;;5045062;28;20201;-58
2021/06/20 06:02:14;;;;;;;5.47;1.80;;;22.30;60.80;;;;;;5034683;28;20421;-58
2021/06/20 06:04:43;;;;;;;3.83;2.07;;;22.30;61.00;;;;;;5045470;28;20514;-57
2021/06/20 06:07:09;;;;;;;9.53;2.03;;;22.40;61.30;;;;;;5041716;28;20775;-59
2021/06/20 06:09:36;;;;;;;6.40;2.23;;;22.40;61.70;;;;;;5045531;28;20432;-59
2021/06/20 06:12:03;;;;;;;6.20;2.60;;;22.40;61.50;;;;;;5047882;28;20524;-59
2021/06/20 06:14:29;;;;;;;6.27;1.87;;;22.40;63.00;;;;;;5046766;28;20428;-60
2021/06/20 06:16:54;;;;;;;6.20;2.07;;;22.40;64.40;;;;;;5045462;28;20946;-60
2021/06/20 06:19:20;;;;;;;7.07;2.60;;;22.40;63.90;;;;;;5047761;28;20694;-60
2021/06/20 06:21:48;;;;;;;5.90;2.10;;;22.40;64.90;;;;;;5048386;28;20175;-61
2021/06/20 06:24:14;;;;;;;3.63;2.00;;;22.40;66.30;;;;;;5044934;28;20572;-60
2021/06/20 06:26:40;;;;;;;4.70;1.87;;;22.40;67.50;;;;;;5034241;28;20946;-60
2021/06/20 06:29:07;;;;;;;8.50;2.07;;;22.40;66.90;;;;;;5039386;28;20589;-60
2021/06/20 06:31:35;;;;;;;7.37;1.90;;;22.40;67.70;;;;;;5035164;28;20221;-59
2021/06/20 06:34:01;;;;;;;9.00;2.50;;;22.40;67.20;;;;;;5039139;28;20922;-61
2021/06/20 06:36:27;;;;;;;4.80;2.17;;;22.30;67.90;;;;;;5036457;28;20476;-60
2021/06/20 06:38:52;;;;;;;8.27;2.30;;;22.40;68.80;;;;;;5045853;28;20219;-61
2021/06/20 06:41:18;;;;;;;6.17;2.60;;;22.40;68.30;;;;;;5047880;28;20205;-60
2021/06/20 06:43:45;;;;;;;11.37;2.80;;;22.40;68.70;;;;;;5042372;28;20615;-60
2021/06/20 06:46:11;;;;;;;7.77;2.50;;;22.50;70.90;;;;;;5040831;28;20435;-61
2021/06/20 06:48:37;;;;;;;9.17;2.93;;;22.50;72.10;;;;;;5038992;28;20427;-60
2021/06/20 06:51:03;;;;;;;5.70;2.00;;;22.50;69.90;;;;;;5041631;28;20179;-60
2021/06/20 06:53:28;;;;;;;6.20;2.23;;;22.50;68.60;;;;;;5044306;28;20171;-60
2021/06/20 06:55:54;;;;;;;6.83;2.43;;;22.50;67.60;;;;;;5029308;28;20417;-59
2021/06/20 06:58:20;;;;;;;8.33;2.43;;;22.50;67.50;;;;;;5026981;28;20194;-59
2021/06/20 07:00:47;;;;;;;7.67;2.40;;;22.40;68.00;;;;;;5031346;28;20197;-60
2021/06/20 07:03:13;;;;;;;9.87;2.50;;;22.40;68.90;;;;;;5041531;28;20522;-59
2021/06/20 07:05:38;;;;;;;7.90;2.37;;;22.30;69.50;;;;;;5045089;28;20436;-58
2021/06/20 07:08:05;;;;;;;4.83;2.70;;;22.30;70.50;;;;;;5043935;28;20601;-58
2021/06/20 07:10:31;;;;;;;6.83;2.53;;;22.30;72.10;;;;;;5028997;28;20282;-55
2021/06/20 07:12:56;;;;;;;7.53;2.73;;;22.30;74.30;;;;;;5039149;28;20413;-58
2021/06/20 07:15:22;;;;;;;7.43;2.90;;;22.20;74.20;;;;;;5044967;28;20414;-59
2021/06/20 07:17:48;;;;;;;7.00;2.63;;;22.20;74.00;;;;;;5038105;28;20552;-60
2021/06/20 07:20:15;;;;;;;10.00;2.90;;;22.20;75.70;;;;;;5040738;28;20182;-58
2021/06/20 07:22:42;;;;;;;11.70;2.53;;;22.20;76.80;;;;;;5038402;28;20260;-61
2021/06/20 07:25:08;;;;;;;6.50;2.90;;;22.20;75.30;;;;;;5038848;28;20417;-60
2021/06/20 07:27:35;;;;;;;6.87;3.50;;;22.20;74.50;;;;;;5029080;28;20437;-58
2021/06/20 07:30:05;;;;;;;14.40;3.63;;;22.30;75.80;;;;;;5039311;28;20565;-59
2021/06/20 07:32:31;;;;;;;12.40;3.23;;;22.30;75.20;;;;;;5036054;28;21183;-58
2021/06/20 07:34:56;;;;;;;10.03;3.57;;;22.40;76.60;;;;;;5042828;28;20509;-59
2021/06/20 07:37:22;;;;;;;14.10;3.93;;;22.40;77.40;;;;;;5038474;28;20171;-60
2021/06/20 07:39:47;;;;;;;14.50;3.53;;;22.40;77.90;;;;;;5047350;28;20695;-59
2021/06/20 07:42:13;;;;;;;13.27;3.50;;;22.50;77.70;;;;;;5037879;28;20246;-61
2021/06/20 07:44:39;;;;;;;11.43;4.00;;;22.50;77.80;;;;;;5038237;28;20199;-60
2021/06/20 07:47:04;;;;;;;18.03;3.77;;;22.50;78.40;;;;;;5040876;28;20219;-59
2021/06/20 07:49:30;;;;;;;15.77;4.10;;;22.50;78.80;;;;;;5041433;28;20195;-59
2021/06/20 07:51:56;;;;;;;12.40;3.70;;;22.50;80.10;;;;;;5044229;28;20535;-59
2021/06/20 07:54:21;;;;;;;16.20;4.60;;;22.50;79.90;;;;;;5042831;28;20494;-59
2021/06/20 07:56:47;;;;;;;10.30;3.40;;;22.50;79.70;;;;;;5045042;28;20198;-60
2021/06/20 07:59:12;;;;;;;15.87;3.87;;;22.50;79.60;;;;;;5044210;28;20282;-60
2021/06/20 08:01:39;;;;;;;19.67;4.70;;;22.50;81.80;;;;;;5045974;28;20202;-59
2021/06/20 08:04:05;;;;;;;9.20;3.40;;;22.60;82.60;;;;;;5048805;28;20210;-58
2021/06/20 08:06:31;;;;;;;13.07;4.80;;;22.70;82.30;;;;;;5051309;28;20448;-59
2021/06/20 08:08:56;;;;;;;11.90;3.53;;;22.80;81.80;;;;;;5042551;28;20568;-60
2021/06/20 08:11:27;;;;;;;10.03;3.10;;;22.80;82.20;;;;;;5039485;28;20220;-59
2021/06/20 08:13:54;;;;;;;9.23;2.90;;;22.90;82.50;;;;;;5042255;28;20196;-59
2021/06/20 08:16:20;;;;;;;13.13;3.80;;;22.90;82.70;;;;;;5045276;28;20425;-60
2021/06/20 08:18:46;;;;;;;8.10;3.20;;;22.90;81.90;;;;;;5037876;28;20492;-60
2021/06/20 08:21:12;;;;;;;15.87;3.80;;;22.90;84.70;;;;;;5030862;28;20508;-61
2021/06/20 08:23:38;;;;;;;6.30;3.17;;;23.00;84.50;;;;;;5044049;28;20453;-61
2021/06/20 08:26:04;;;;;;;7.87;3.30;;;23.00;83.90;;;;;;5036692;28;21171;-59
2021/06/20 08:28:31;;;;;;;12.83;3.40;;;23.00;83.20;;;;;;5038211;28;20199;-58
2021/06/20 08:30:58;;;;;;;17.60;4.40;;;23.00;81.00;;;;;;5044187;28;20466;-60
2021/06/20 08:33:23;;;;;;;11.83;4.17;;;23.00;81.20;;;;;;5036837;28;20424;-60
2021/06/20 08:35:49;;;;;;;23.37;5.27;;;23.10;83.30;;;;;;5041096;28;20422;-59
2021/06/20 08:38:14;;;;;;;13.03;4.57;;;23.20;83.10;;;;;;5041629;28;20210;-58
2021/06/20 08:40:42;;;;;;;14.57;3.57;;;23.30;81.80;;;;;;5043437;28;20709;-57
2021/06/20 08:43:08;;;;;;;19.57;4.40;;;23.40;80.70;;;;;;5041723;28;20314;-58
2021/06/20 08:45:33;;;;;;;12.90;4.17;;;23.40;81.30;;;;;;5044518;28;20430;-59
2021/06/20 08:48:00;;;;;;;14.03;3.87;;;23.50;80.20;;;;;;5049884;28;20930;-61
2021/06/20 08:50:25;;;;;;;12.20;3.93;;;23.50;80.10;;;;;;5038519;28;20179;-58
2021/06/20 08:52:54;;;;;;;15.40;4.00;;;23.50;77.50;;;;;;5044938;28;21031;-59
2021/06/20 08:55:20;;;;;;;11.10;3.20;;;23.40;76.70;;;;;;5037159;28;20543;-60
2021/06/20 08:57:48;;;;;;;12.13;4.27;;;23.40;76.90;;;;;;5044536;28;20507;-58
2021/06/20 09:00:16;;;;;;;12.80;4.27;;;23.30;78.90;;;;;;5046698;28;20449;-59
2021/06/20 09:02:43;;;;;;;14.30;4.07;;;23.30;79.70;;;;;;5034079;28;20430;-64
2021/06/20 09:05:10;;;;;;;20.33;5.33;;;23.40;82.30;;;;;;5046794;28;20939;-59
2021/06/20 09:07:38;;;;;;;11.70;3.83;;;23.50;83.60;;;;;;5035931;28;20456;-55
2021/06/20 09:10:26;;;;;;;16.23;3.77;;;23.60;83.10;;;;;;5036815;28;20433;-59
2021/06/20 09:12:54;;;;;;;10.80;3.97;;;23.70;83.90;;;;;;5045403;28;20440;-58
2021/06/20 09:15:26;;;;;;;11.97;3.93;;;23.90;82.80;;;;;;5039862;28;20432;-58
2021/06/20 09:17:57;;;;;;;14.63;5.20;;;24.10;80.00;;;;;;5048345;28;20442;-59
2021/06/20 09:20:30;;;;;;;22.67;4.83;;;24.30;78.60;;;;;;5041494;28;20426;-57
2021/06/20 09:22:59;;;;;;;12.23;4.73;;;24.40;77.10;;;;;;5040215;28;20546;-58
2021/06/20 09:25:28;;;;;;;17.00;4.47;;;24.50;77.30;;;;;;5032920;28;20434;-58
2021/06/20 09:27:59;;;;;;;21.73;4.27;;;24.50;78.20;;;;;;5030555;28;20435;-58
2021/06/20 09:30:26;;;;;;;11.80;3.93;;;24.60;77.60;;;;;;5034902;28;21220;-59
2021/06/20 09:32:56;;;;;;;13.90;4.93;;;24.70;74.60;;;;;;5043451;28;20894;-57
2021/06/20 09:35:22;;;;;;;12.00;4.40;;;24.80;74.10;;;;;;5029309;28;22391;-57
2021/06/20 09:37:56;;;;;;;12.50;3.93;;;25.00;76.10;;;;;;5028787;28;20433;-58
2021/06/20 09:40:29;;;;;;;16.60;4.00;;;25.30;76.20;;;;;;5031670;28;20498;-60
2021/06/20 09:42:56;;;;;;;14.40;4.30;;;25.50;73.90;;;;;;5042547;28;20496;-58
2021/06/20 09:45:30;;;;;;;16.80;4.57;;;25.60;74.00;;;;;;5037917;28;20874;-59
2021/06/20 09:47:56;;;;;;;14.67;3.87;;;25.60;73.10;;;;;;5036197;28;21010;-57
2021/06/20 09:50:40;;;;;;;19.80;4.67;;;25.60;73.10;;;;;;5034521;28;20429;-60
2021/06/20 09:53:06;;;;;;;13.90;4.43;;;25.50;72.10;;;;;;5035032;28;20617;-57
2021/06/20 09:55:33;;;;;;;14.23;4.67;;;25.40;71.60;;;;;;5044614;28;20414;-58
2021/06/20 09:58:01;;;;;;;18.00;4.73;;;25.40;73.20;;;;;;5043648;28;20449;-59
2021/06/20 10:00:36;;;;;;;10.60;4.30;;;25.50;73.10;;;;;;5041261;28;20508;-60
2021/06/20 10:03:02;;;;;;;19.93;5.67;;;25.50;73.60;;;;;;5037743;28;20801;-57
2021/06/20 10:05:27;;;;;;;13.90;3.93;;;25.60;73.00;;;;;;5040127;28;20440;-61
2021/06/20 10:07:53;;;;;;;15.47;4.20;;;25.70;69.10;;;;;;5037485;28;20192;-62
2021/06/20 10:10:18;;;;;;;14.53;5.00;;;25.80;65.00;;;;;;5040012;28;20173;-58
2021/06/20 10:12:44;;;;;;;13.27;3.77;;;25.90;61.60;;;;;;5032442;28;20291;-59
2021/06/20 10:15:13;;;;;;;15.90;4.67;;;26.00;60.20;;;;;;5041541;28;20210;-61
2021/06/20 10:17:42;;;;;;;21.53;4.97;;;26.10;60.00;;;;;;5041843;28;20179;-59
2021/06/20 10:20:14;;;;;;;20.83;5.00;;;26.20;60.80;;;;;;5033649;28;20503;-58
2021/06/20 10:22:46;;;;;;;13.97;4.10;;;26.30;59.40;;;;;;5035653;28;20440;-60
2021/06/20 10:25:23;;;;;;;17.23;4.77;;;26.40;58.50;;;;;;5028545;28;20426;-60
2021/06/20 10:28:17;;;;;;;24.57;5.07;;;26.60;59.00;;;;;;5040241;28;20445;-61
2021/06/20 10:30:47;;;;;;;17.10;4.07;;;26.80;56.60;;;;;;5022883;28;20527;-63
2021/06/20 10:33:27;;;;;;;21.87;5.33;;;27.00;54.90;;;;;;5028966;28;20469;-62
2021/06/20 10:36:09;;;;;;;16.13;4.33;;;27.00;56.00;;;;;;5027979;28;20542;-53
2021/06/20 10:38:38;;;;;;;19.10;4.50;;;27.00;56.20;;;;;;5032913;28;20477;-58
2021/06/20 10:41:05;;;;;;;22.70;4.43;;;27.00;55.00;;;;;;5020920;28;20441;-62
2021/06/20 10:43:31;;;;;;;27.27;5.33;;;27.20;57.00;;;;;;5033191;28;22452;-61
2021/06/20 10:45:57;;;;;;;26.30;4.40;;;27.30;54.30;;;;;;5037375;28;20426;-60
2021/06/20 10:48:33;;;;;;;25.27;4.77;;;27.50;53.50;;;;;;5039960;28;20461;-59
2021/06/20 10:50:59;;;;;;;22.33;4.30;;;27.60;52.50;;;;;;5023570;28;20253;-59
2021/06/20 10:53:26;;;;;;;44.07;5.93;;;27.80;52.80;;;;;;5029564;28;20891;-60
2021/06/20 10:55:53;;;;;;;20.80;5.50;;;27.90;52.70;;;;;;5038977;28;20527;-60
2021/06/20 10:58:25;;;;;;;40.77;6.30;;;28.00;53.10;;;;;;5038289;28;20498;-62
2021/06/20 11:01:04;;;;;;;23.50;5.20;;;28.10;53.70;;;;;;5033782;28;20428;-64
2021/06/20 11:03:30;;;;;;;23.00;5.90;;;28.20;53.50;;;;;;5032103;28;20444;-63
2021/06/20 11:06:06;;;;;;;26.10;5.93;;;28.20;53.40;;;;;;5033784;28;20802;-63
2021/06/20 11:08:39;;;;;;;30.93;6.53;;;28.10;53.30;;;;;;5042929;28;20290;-64
2021/06/20 11:11:08;;;;;;;35.30;5.43;;;28.10;53.30;;;;;;5048883;28;20429;-61
2021/06/20 11:13:35;;;;;;;32.57;5.23;;;28.10;53.10;;;;;;5043048;28;20456;-61
2021/06/20 11:16:23;;;;;;;34.13;5.40;;;28.10;52.70;;;;;;5044434;28;20182;-62
2021/06/20 11:18:48;;;;;;;27.63;5.63;;;28.10;52.20;;;;;;5042359;28;20449;-62
2021/06/20 11:21:14;;;;;;;31.03;6.17;;;28.10;52.00;;;;;;5035206;28;20236;-62
2021/06/20 11:23:41;;;;;;;24.17;5.80;;;28.10;54.40;;;;;;5044731;28;20295;-63
2021/06/20 11:26:08;;;;;;;25.47;5.60;;;28.20;54.90;;;;;;5042881;28;20198;-63
2021/06/20 11:28:33;;;;;;;26.73;5.83;;;28.30;54.90;;;;;;5043960;28;20230;-62
2021/06/20 11:31:12;;;;;;;23.90;5.67;;;28.30;53.80;;;;;;5041790;28;20202;-61
2021/06/20 11:33:39;;;;;;;32.90;6.93;;;28.10;53.60;;;;;;5043352;28;20182;-64
2021/06/20 11:36:05;;;;;;;23.27;6.07;;;28.00;54.20;;;;;;5045016;28;20228;-62
2021/06/20 11:38:39;;;;;;;25.27;6.47;;;28.10;54.90;;;;;;5047260;28;20254;-62
2021/06/20 11:41:13;;;;;;;27.23;6.07;;;28.20;55.10;;;;;;5041454;28;20255;-62
2021/06/20 11:44:00;;;;;;;22.03;5.80;;;28.30;55.70;;;;;;5040430;28;20198;-62
2021/06/20 11:46:29;;;;;;;18.70;5.70;;;28.40;56.40;;;;;;5045307;28;20277;-60
2021/06/20 11:49:01;;;;;;;28.20;5.47;;;28.60;55.60;;;;;;5025503;28;20195;-61
2021/06/20 11:51:32;;;;;;;26.63;5.47;;;28.80;55.10;;;;;;5041838;28;20171;-61
2021/06/20 11:54:07;;;;;;;32.27;6.93;;;28.90;54.50;;;;;;5045446;28;20174;-62
2021/06/20 11:56:32;;;;;;;26.47;6.00;;;29.00;52.70;;;;;;5045650;28;20175;-61
2021/06/20 11:58:58;;;;;;;29.60;5.63;;;29.00;52.60;;;;;;5040103;28;20574;-62
2021/06/20 12:01:37;;;;;;;32.13;6.23;;;29.00;52.60;;;;;;5038692;28;20822;-62
2021/06/20 12:04:02;;;;;;;29.23;5.53;;;29.10;51.70;;;;;;5040308;28;20854;-61
2021/06/20 12:06:28;;;;;;;29.57;6.67;;;29.20;52.00;;;;;;5039715;28;20250;-63
2021/06/20 12:08:54;;;;;;;26.23;5.87;;;29.10;50.80;;;;;;5044045;28;20230;-60
2021/06/20 12:11:33;;;;;;;24.20;6.00;;;29.00;51.00;;;;;;5049581;28;20171;-62
2021/06/20 12:13:59;;;;;;;21.90;6.13;;;28.90;50.80;;;;;;5045978;28;20338;-62
2021/06/20 12:16:25;;;;;;;36.50;6.93;;;28.90;50.60;;;;;;5041315;28;20187;-64
2021/06/20 12:18:51;;;;;;;41.00;7.50;;;28.90;50.40;;;;;;5038589;28;20211;-62
2021/06/20 12:21:30;;;;;;;19.13;5.30;;;28.80;50.60;;;;;;5037193;28;20187;-61
2021/06/20 12:23:58;;;;;;;37.90;6.40;;;28.90;51.20;;;;;;5041675;28;20568;-62
2021/06/20 12:26:32;;;;;;;29.47;6.57;;;29.00;52.50;;;;;;5046141;28;20186;-63
2021/06/20 12:28:59;;;;;;;29.40;6.10;;;29.10;51.50;;;;;;5045743;28;20192;-62
2021/06/20 12:31:25;;;;;;;39.87;6.50;;;29.30;49.80;;;;;;5043582;28;20197;-61
2021/06/20 12:34:03;;;;;;;36.67;6.90;;;29.40;50.50;;;;;;5043186;28;20175;-61
2021/06/20 12:36:30;;;;;;;33.63;6.07;;;29.50;50.20;;;;;;5045842;28;20544;-62
2021/06/20 12:38:58;;;;;;;24.67;6.13;;;29.60;51.50;;;;;;5037679;28;20215;-61
2021/06/20 12:41:26;;;;;;;25.43;6.00;;;29.80;51.40;;;;;;5036912;28;20170;-64